Latest Weather Observations for North West 10 Beacon

IDQ60901

Issued at 9:21 pm EST Thursday 30 June 2022 (issued every 10 minutes, with the page automatically refreshed every 10 minutes)

About weather observations | Map of Brisbane area stations | Latest observations for Brisbane area | Other Formats
Station Details ID: 200896 Name: NORTH WEST 10 BEACON Lat: -27.00 Lon: 153.24 Height: 7.0 m
Data from the previous 72 hours. | See also: Recent months for locations in Queensland
Date/Time
EST
Temp
°C
App
Temp
°C
Dew
Point
°C
Rel
Hum
%
Delta-T
°C
Wind Press
QNH
hPa
Press
MSL
hPa
Rain since
9am
mm
Dir  Spd
km/h
Gust
km/h
Spd
kts
Gust
kts
30/09:00pm - - - - - ESE 15 17 8 9 - - -
30/08:30pm - - - - - E 13 15 7 8 - - -
30/08:00pm - - - - - ESE 4 9 2 5 - - -
30/07:30pm - - - - - ESE 6 7 3 4 - - -
30/07:00pm - - - - - ENE 9 11 5 6 - - -
30/06:30pm - - - - - ENE 9 11 5 6 - - -
30/06:00pm - - - - - ENE 15 17 8 9 - - -
30/05:30pm - - - - - ENE 15 17 8 9 - - -
30/05:00pm - - - - - ENE 19 20 10 11 - - -
30/04:30pm - - - - - E 17 20 9 11 - - -
30/04:00pm - - - - - E 13 15 7 8 - - -
30/03:30pm - - - - - ESE 15 17 8 9 - - -
30/03:00pm - - - - - ESE 15 19 8 10 - - -
30/02:30pm - - - - - SE 15 17 8 9 - - -
30/02:00pm - - - - - SE 15 19 8 10 - - -
30/01:30pm - - - - - SE 17 20 9 11 - - -
30/01:00pm - - - - - SE 19 20 10 11 - - -
30/12:30pm - - - - - SSE 19 22 10 12 - - -
30/12:00pm - - - - - SE 20 22 11 12 - - -
30/11:30am - - - - - SE 20 22 11 12 - - -
30/11:00am - - - - - SSE 22 24 12 13 - - -
30/10:30am - - - - - SE 20 26 11 14 - - -
30/10:00am - - - - - SSE 20 24 11 13 - - -
30/09:30am - - - - - SE 19 22 10 12 - - -
30/09:00am - - - - - SE 20 22 11 12 - - -
30/08:30am - - - - - SE 19 22 10 12 - - -
30/08:00am - - - - - SSE 19 22 10 12 - - -
30/07:30am - - - - - SSE 20 24 11 13 - - -
30/07:00am - - - - - SSE 19 22 10 12 - - -
30/06:30am - - - - - SSE 22 26 12 14 - - -
30/06:00am - - - - - SSE 24 28 13 15 - - -
30/05:30am - - - - - SE 20 24 11 13 - - -
30/05:00am - - - - - SE 20 24 11 13 - - -
30/04:30am - - - - - SE 22 26 12 14 - - -
30/04:00am - - - - - SE 17 20 9 11 - - -
30/03:30am - - - - - SSE 20 24 11 13 - - -
30/03:00am - - - - - SE 19 20 10 11 - - -
30/02:30am - - - - - SSE 19 20 10 11 - - -
30/02:00am - - - - - SSE 22 26 12 14 - - -
30/01:30am - - - - - SSE 20 24 11 13 - - -
30/01:00am - - - - - SSE 15 17 8 9 - - -
30/12:30am - - - - - SSE 19 20 10 11 - - -
30/12:00am - - - - - SE 20 24 11 13 - - -
 
Date/Time
EST
Temp
°C
App
Temp
°C
Dew
Point
°C
Rel
Hum
%
Delta-T
°C
Wind Press
QNH
hPa
Press
MSL
hPa
Rain since
9am
mm
Dir  Spd
km/h
Gust
km/h
Spd
kts
Gust
kts
29/11:30pm - - - - - SE 19 24 10 13 - - -
29/11:00pm - - - - - SSE 19 22 10 12 - - -
29/10:30pm - - - - - SE 19 22 10 12 - - -
29/10:00pm - - - - - SE 20 26 11 14 - - -
29/09:30pm - - - - - SSE 20 24 11 13 - - -
29/09:00pm - - - - - S 19 22 10 12 - - -
29/08:30pm - - - - - SSE 20 24 11 13 - - -
29/08:00pm - - - - - ESE 15 19 8 10 - - -
29/07:30pm - - - - - E 20 30 11 16 - - -
29/07:00pm - - - - - ESE 19 24 10 13 - - -
29/06:30pm - - - - - SE 24 28 13 15 - - -
29/06:00pm - - - - - SE 22 26 12 14 - - -
29/05:30pm - - - - - SE 22 24 12 13 - - -
29/05:00pm - - - - - ESE 24 28 13 15 - - -
29/04:30pm - - - - - ESE 28 32 15 17 - - -
29/04:00pm - - - - - SE 26 32 14 17 - - -
29/03:30pm - - - - - SE 28 32 15 17 - - -
29/03:00pm - - - - - SE 26 30 14 16 - - -
29/02:30pm - - - - - SE 28 33 15 18 - - -
29/02:00pm - - - - - SE 28 33 15 18 - - -
29/01:30pm - - - - - ESE 28 32 15 17 - - -
29/01:00pm - - - - - SE 22 26 12 14 - - -
29/12:30pm - - - - - SSE 26 32 14 17 - - -
29/12:00pm - - - - - SE 24 28 13 15 - - -
29/11:30am - - - - - SE 24 30 13 16 - - -
29/11:00am - - - - - SE 20 26 11 14 - - -
29/10:30am - - - - - SE 26 30 14 16 - - -
29/10:00am - - - - - SE 24 30 13 16 - - -
29/09:30am - - - - - SSE 19 26 10 14 - - -
29/09:00am - - - - - SSE 20 28 11 15 - - -
29/08:30am - - - - - SSE 24 32 13 17 - - -
29/08:00am - - - - - SSE 22 28 12 15 - - -
29/07:30am - - - - - SSE 28 33 15 18 - - -
29/07:00am - - - - - SSE 33 39 18 21 - - -
29/06:30am - - - - - SE 30 35 16 19 - - -
29/06:00am - - - - - SE 30 35 16 19 - - -
29/05:30am - - - - - SE 30 37 16 20 - - -
29/05:00am - - - - - SSE 28 35 15 19 - - -
29/04:30am - - - - - SSE 28 33 15 18 - - -
29/04:00am - - - - - SSE 28 33 15 18 - - -
29/03:30am - - - - - SSE 30 37 16 20 - - -
29/03:00am - - - - - SSE 30 33 16 18 - - -
29/02:30am - - - - - SE 30 33 16 18 - - -
29/02:00am - - - - - SE 30 39 16 21 - - -
29/01:30am - - - - - SE 33 39 18 21 - - -
29/01:00am - - - - - ESE 35 43 19 23 - - -
29/12:30am - - - - - SE 33 41 18 22 - - -
29/12:00am - - - - - SE 32 39 17 21 - - -
 
Date/Time
EST
Temp
°C
App
Temp
°C
Dew
Point
°C
Rel
Hum
%
Delta-T
°C
Wind Press
QNH
hPa
Press
MSL
hPa
Rain since
9am
mm
Dir  Spd
km/h
Gust
km/h
Spd
kts
Gust
kts
28/11:30pm - - - - - SE 30 35 16 19 - - -
28/11:00pm - - - - - SE 37 44 20 24 - - -
28/10:30pm - - - - - SE 35 43 19 23 - - -
28/10:00pm - - - - - SE 30 37 16 20 - - -
28/09:30pm - - - - - SE 30 37 16 20 - - -
28/09:00pm - - - - - ESE 33 41 18 22 - - -
28/08:30pm - - - - - SE 30 37 16 20 - - -
28/08:00pm - - - - - SE 33 39 18 21 - - -
28/07:30pm - - - - - SE 33 39 18 21 - - -
28/07:00pm - - - - - ESE 43 54 23 29 - - -
28/06:30pm - - - - - SE 41 46 22 25 - - -
28/06:00pm - - - - - ESE 39 46 21 25 - - -
28/05:30pm - - - - - ESE 39 46 21 25 - - -
28/05:00pm - - - - - ESE 35 44 19 24 - - -
28/04:30pm - - - - - ESE 37 44 20 24 - - -
28/04:00pm - - - - - ESE 28 33 15 18 - - -
28/03:30pm - - - - - ESE 35 43 19 23 - - -
28/03:00pm - - - - - ESE 37 44 20 24 - - -
28/02:30pm - - - - - SE 37 43 20 23 - - -
28/02:00pm - - - - - SE 35 39 19 21 - - -
28/01:30pm - - - - - SE 39 48 21 26 - - -
28/01:00pm - - - - - SE 39 46 21 25 - - -
28/12:30pm - - - - - ESE 39 46 21 25 - - -
28/12:00pm - - - - - SE 35 43 19 23 - - -
28/11:30am - - - - - SE 33 41 18 22 - - -
28/11:00am - - - - - SE 35 41 19 22 - - -
28/10:30am - - - - - SE 35 41 19 22 - - -
28/10:00am - - - - - SE 33 44 18 24 - - -
28/09:30am - - - - - SSE 30 33 16 18 - - -
28/09:00am - - - - - SSE 28 33 15 18 - - -
28/08:30am - - - - - SSE 28 32 15 17 - - -
28/08:00am - - - - - SSE 28 33 15 18 - - -
28/07:30am - - - - - SSE 26 32 14 17 - - -
28/07:00am - - - - - SSE 22 28 12 15 - - -
28/06:30am - - - - - SSE 28 35 15 19 - - -
28/06:00am - - - - - SSE 28 35 15 19 - - -
28/05:30am - - - - - SE 30 43 16 23 - - -
28/05:00am - - - - - SE 32 39 17 21 - - -
28/04:30am - - - - - SSE 32 39 17 21 - - -
28/04:00am - - - - - SE 32 37 17 20 - - -
28/03:30am - - - - - SE 32 37 17 20 - - -
28/03:00am - - - - - SE 33 43 18 23 - - -
28/02:30am - - - - - SE 39 46 21 25 - - -
28/02:00am - - - - - SE 39 48 21 26 - - -
28/01:30am - - - - - SE 39 44 21 24 - - -
28/01:00am - - - - - SE 43 54 23 29 - - -
28/12:30am - - - - - SE 43 50 23 27 - - -
28/12:00am - - - - - ESE 43 50 23 27 - - -
 
Date/Time
EST
Temp
°C
App
Temp
°C
Dew
Point
°C
Rel
Hum
%
Delta-T
°C
Wind Press
QNH
hPa
Press
MSL
hPa
Rain since
9am
mm
Dir  Spd
km/h
Gust
km/h
Spd
kts
Gust
kts
27/11:30pm - - - - - ESE 41 48 22 26 - - -
27/11:00pm - - - - - SE 33 39 18 21 - - -
27/10:30pm - - - - - SSE 28 35 15 19 - - -
27/10:00pm - - - - - SSE 22 24 12 13 - - -
27/09:30pm - - - - - SE 22 26 12 14 - - -

Latest Capital City Observations: Canberra | Sydney | Melbourne | Brisbane | Adelaide | Perth | Hobart | Darwin

Other formats

Comma delimited format used in spreadsheet applications
http://www.bom.gov.au/fwo/IDQ60901/IDQ60901.99496.axf

JavaScript Object Notation format (JSON) in row-major order
http://www.bom.gov.au/fwo/IDQ60901/IDQ60901.99496.json

Data quality

Most of these data are generated automatically and are frequently updated. Quality checks on data are not normally performed. It is possible for incorrect values to appear. Refer to information at About Latest Weather Observations and please check the disclaimer before using these data.